Time;durP1;ratioP1;P1;durP2;ratioP2;P2;SDS_P1;SDS_P2;PMS_P1;PMS_P2;Temp;Humidity;BMP_temperature;BMP_pressure;BME280_temperature;BME280_humidity;BME280_pressure;Samples;Min_cycle;Max_cycle;Signal;HPM_P1;HPM_P2
2022/05/23 04:00:49;;;;;;;;;;;;;;;;;;;;;
2022/05/23 04:04:31;;;;;;;;;;;;;;;;;;;;;
2022/05/23 04:07:50;;;;;;;2.65;1.30;;;16.00;1.00;;;;;;6193209;23;20043;-90
2022/05/23 04:37:27;;;;;;;3.67;1.60;;;15.90;1.00;;;;;;6160395;23;20059;-93
2022/05/23 04:50:20;;;;;;;3.80;1.90;;;15.70;1.00;;;;;;6126008;23;20020;-91
2022/05/23 04:58:08;;;;;;;4.18;2.15;;;15.70;1.00;;;;;;5927423;24;20069;-91
2022/05/23 05:01:10;;;;;;;6.28;1.58;;;15.70;1.00;;;;;;5859652;24;20022;-91
2022/05/23 05:13:05;;;;;;;;;;;;;;;;;;;;;
2022/05/23 05:30:41;;;;;;;;;;;;;;;;;;;;;
2022/05/23 05:34:56;;;;;;;4.13;2.15;;;15.90;1.00;;;;;;5981870;23;20148;-89
2022/05/23 07:37:44;;;;;;;9.13;4.70;;;16.50;99.90;;;;;;6170010;23;20032;-91
2022/05/23 08:51:20;;;;;;;11.02;6.03;;;18.40;39.60;;;;;;6187138;23;20475;-91
2022/05/23 09:02:59;;;;;;;;;;;;;;;;;;;;;
2022/05/23 09:06:09;;;;;;;9.63;5.35;;;18.60;31.40;;;;;;6159740;23;20013;-92
2022/05/23 09:09:23;;;;;;;11.60;5.88;;;18.70;43.70;;;;;;6160363;23;20072;-92
2022/05/23 09:15:38;;;;;;;13.88;5.78;;;18.80;47.70;;;;;;6185365;23;20028;-92
2022/05/23 09:18:25;;;;;;;9.43;6.47;;;18.70;30.40;;;;;;6162476;23;20009;-90
2022/05/23 09:21:12;;;;;;;10.77;5.90;;;18.80;34.20;;;;;;6187945;23;20017;-90
2022/05/23 09:24:06;;;;;;;8.82;6.60;;;18.80;33.80;;;;;;6169832;23;20015;-91
2022/05/23 09:26:41;;;;;;;12.20;6.85;;;18.80;30.80;;;;;;6188176;23;20001;-91
2022/05/23 09:29:40;;;;;;;13.38;6.95;;;18.80;35.30;;;;;;6166731;23;20024;-91
2022/05/23 09:32:43;;;;;;;11.52;5.78;;;18.80;37.30;;;;;;6180374;23;20017;-91
2022/05/23 09:39:01;;;;;;;10.10;6.63;;;19.00;15.30;;;;;;6160440;23;20013;-91
2022/05/23 09:48:01;;;;;;;6.07;4.10;;;19.20;11.80;;;;;;6160099;23;20021;-91
2022/05/23 09:50:46;;;;;;;8.60;6.03;;;19.30;1.00;;;;;;6160449;23;20659;-90
2022/05/23 09:53:30;;;;;;;11.25;6.10;;;19.40;1.00;;;;;;6160841;23;20021;-91
2022/05/23 09:56:37;;;;;;;12.68;6.50;;;19.40;1.00;;;;;;6186907;23;20475;-90
2022/05/23 09:59:36;;;;;;;10.88;6.68;;;19.40;1.00;;;;;;6161523;23;20071;-91
2022/05/23 10:02:56;;;;;;;8.50;4.00;;;19.50;1.00;;;;;;6159715;23;20021;-91
2022/05/23 10:05:46;;;;;;;5.95;3.75;;;19.50;1.00;;;;;;6042868;23;20058;-90
2022/05/23 10:08:28;;;;;;;6.90;4.28;;;19.60;1.00;;;;;;6184741;23;20338;-90
2022/05/23 10:11:04;;;;;;;6.28;3.65;;;19.70;1.00;;;;;;6160213;23;20021;-91
2022/05/23 10:13:49;;;;;;;13.93;6.28;;;19.70;1.00;;;;;;6136842;23;20017;-91
2022/05/23 10:16:29;;;;;;;11.35;6.38;;;19.80;1.00;;;;;;6160845;23;20013;-91
2022/05/23 10:19:10;;;;;;;3.65;3.28;;;19.90;1.00;;;;;;6161561;23;20041;-91
2022/05/23 10:21:44;;;;;;;9.05;4.85;;;19.90;1.00;;;;;;6160456;23;20024;-91
2022/05/23 10:24:18;;;;;;;13.43;8.05;;;20.00;1.00;;;;;;6159708;23;20040;-91
2022/05/23 10:27:03;;;;;;;7.75;4.95;;;20.10;1.00;;;;;;6135776;23;20024;-90
2022/05/23 10:29:57;;;;;;;15.80;7.28;;;20.20;1.00;;;;;;6140071;23;20023;-92
2022/05/23 10:32:41;;;;;;;12.70;7.05;;;20.30;1.00;;;;;;6112436;23;20021;-91
2022/05/23 10:35:28;;;;;;;10.85;6.43;;;20.40;1.00;;;;;;6160402;23;20027;-90
2022/05/23 10:44:04;;;;;;;14.32;7.55;;;20.50;1.00;;;;;;6190863;23;20039;-91
2022/05/23 10:47:15;;;;;;;10.70;7.25;;;20.60;1.00;;;;;;6161390;23;20020;-92
2022/05/23 10:50:06;;;;;;;7.50;4.00;;;20.70;1.00;;;;;;6136073;23;20028;-91
2022/05/23 10:53:01;;;;;;;8.77;7.28;;;20.90;1.00;;;;;;6136601;23;20017;-90
2022/05/23 10:55:49;;;;;;;7.32;4.55;;;21.00;1.00;;;;;;6134927;23;20041;-90
2022/05/23 10:58:53;;;;;;;6.47;3.80;;;21.00;1.00;;;;;;6137402;23;20013;-91
2022/05/23 11:02:02;;;;;;;8.77;5.07;;;21.10;1.00;;;;;;6163809;23;20088;-91
2022/05/23 11:05:27;;;;;;;12.70;9.60;;;21.10;1.00;;;;;;6139366;23;20021;-91
2022/05/23 11:08:16;;;;;;;7.43;5.15;;;21.00;1.00;;;;;;6159821;23;20013;-92
2022/05/23 11:11:46;;;;;;;17.63;12.55;;;21.30;1.00;;;;;;6140795;23;20275;-91
2022/05/23 11:15:09;;;;;;;11.10;4.43;;;21.20;1.00;;;;;;6163501;23;20009;-90
2022/05/23 11:18:36;;;;;;;12.75;9.38;;;21.40;1.00;;;;;;6159854;23;20021;-91
2022/05/23 11:22:20;;;;;;;17.83;10.77;;;21.40;1.00;;;;;;6159456;23;20376;-91
2022/05/23 11:26:09;;;;;;;;;;;;;;;;;;;;;
2022/05/23 11:33:41;;;;;;;11.80;6.25;;;21.80;1.00;;;;;;6176550;23;19931;31
2022/05/23 11:41:00;;;;;;;12.45;9.25;;;21.80;1.00;;;;;;6128544;23;20014;-91
2022/05/23 11:49:06;;;;;;;8.15;7.18;;;22.00;1.00;;;;;;6153360;23;20032;-91
2022/05/23 11:56:06;;;;;;;10.57;6.97;;;21.70;1.00;;;;;;6146219;23;20052;-91
2022/05/23 12:10:25;;;;;;;5.03;2.65;;;21.60;1.00;;;;;;6122635;23;20092;-91
2022/05/23 12:18:07;;;;;;;;;;;;;;;;;;;;;
2022/05/23 12:21:51;;;;;;;17.25;11.32;;;21.40;1.00;;;;;;6068005;23;20454;-91
2022/05/23 12:24:58;;;;;;;5.55;3.97;;;21.10;1.00;;;;;;6079928;23;20441;-91
2022/05/23 12:32:55;;;;;;;11.50;8.57;;;20.90;1.00;;;;;;6096198;23;20109;-91
2022/05/23 12:45:55;;;;;;;6.88;3.70;;;20.50;1.00;;;;;;5987272;24;20369;-91
2022/05/23 12:49:40;;;;;;;5.75;3.47;;;20.50;1.00;;;;;;5965634;24;20104;-91
2022/05/23 12:53:22;;;;;;;6.43;4.43;;;20.50;1.00;;;;;;6000602;23;20019;-91
2022/05/23 12:57:21;;;;;;;5.93;3.53;;;20.50;1.00;;;;;;6124309;23;20044;-91
2022/05/23 13:01:15;;;;;;;5.57;3.85;;;20.50;1.00;;;;;;6067859;23;20078;-91
2022/05/23 13:08:34;;;;;;;14.38;10.63;;;20.50;1.00;;;;;;5982028;24;20112;-92
2022/05/23 13:11:58;;;;;;;13.38;9.02;;;20.20;1.00;;;;;;5929038;24;20023;-91
2022/05/23 13:15:05;;;;;;;9.52;7.10;;;20.30;1.00;;;;;;5936991;24;20031;-91
2022/05/23 13:22:26;;;;;;;10.40;7.57;;;20.30;1.00;;;;;;5954019;24;20059;-91
2022/05/23 13:25:52;;;;;;;14.30;9.98;;;20.30;1.00;;;;;;6183666;23;20035;-90
2022/05/23 13:29:05;;;;;;;7.40;4.30;;;20.20;1.00;;;;;;6186775;23;20013;-91
2022/05/23 13:32:26;;;;;;;7.63;5.35;;;20.20;1.00;;;;;;6137644;23;20017;-91
2022/05/23 13:35:46;;;;;;;11.48;7.07;;;20.30;1.00;;;;;;6134739;23;20118;-91
2022/05/23 13:39:29;;;;;;;6.40;3.63;;;20.40;1.00;;;;;;6136109;23;20029;-91
2022/05/23 13:42:50;;;;;;;6.18;4.95;;;20.30;1.00;;;;;;6108780;23;20022;-91
2022/05/23 13:46:11;;;;;;;7.43;6.13;;;20.20;1.00;;;;;;6109239;23;20013;-94
2022/05/23 13:58:38;;;;;;;;;;;;;;;;;;;;;
2022/05/23 14:02:20;;;;;;;6.15;4.93;;;20.10;1.00;;;;;;5974017;23;20080;-92
2022/05/23 14:05:30;;;;;;;5.53;4.15;;;20.10;1.00;;;;;;6022312;23;20030;-91
2022/05/23 14:08:11;;;;;;;8.68;4.30;;;20.00;1.00;;;;;;6123114;23;20025;-90
2022/05/23 16:03:54;;;;;;;6.38;3.20;;;17.70;1.00;;;;;;6155527;23;20033;31
2022/05/23 16:10:46;;;;;;;6.45;2.75;;;17.60;1.00;;;;;;6025351;23;20016;-91
